createdAt,value
2019-05-05T00:02:40.148Z,86.80
2019-05-05T00:05:20.885Z,86.80
2019-05-05T00:07:48.998Z,86.60
2019-05-05T00:10:25.371Z,86.50
2019-05-05T00:13:07.486Z,86.50
2019-05-05T00:16:04.636Z,86.40
2019-05-05T00:18:34.553Z,86.50
2019-05-05T00:21:04.520Z,86.40
2019-05-05T00:23:31.850Z,86.30
2019-05-05T00:25:59.586Z,86.30
2019-05-05T00:28:27.696Z,86.40
2019-05-05T00:30:55.660Z,87.10
2019-05-05T00:33:24.916Z,87.10
2019-05-05T00:35:54.344Z,86.60
2019-05-05T00:38:22.075Z,86.30
2019-05-05T00:40:49.722Z,86.30
2019-05-05T00:43:17.694Z,86.30
2019-05-05T00:45:47.351Z,86.20
2019-05-05T00:48:36.984Z,86.20
2019-05-05T00:51:04.769Z,86.30
2019-05-05T00:53:34.322Z,86.50
2019-05-05T00:56:02.215Z,86.40
2019-05-05T00:58:31.928Z,86.40
2019-05-05T01:01:19.991Z,86.30
2019-05-05T01:03:47.557Z,86.00
2019-05-05T01:06:19.593Z,86.00
2019-05-05T01:08:46.953Z,85.90
2019-05-05T01:11:15.694Z,85.80
2019-05-05T01:13:45.340Z,85.70
2019-05-05T01:16:15.135Z,85.60
2019-05-05T01:18:42.653Z,85.70
2019-05-05T01:21:10.199Z,85.50
2019-05-05T01:23:37.664Z,85.50
2019-05-05T01:26:07.016Z,85.60
2019-05-05T01:28:35.649Z,85.50
2019-05-05T01:31:11.296Z,85.60
2019-05-05T01:33:47.558Z,85.20
2019-05-05T01:36:15.212Z,85.10
2019-05-05T01:38:49.105Z,85.20
2019-05-05T01:41:34.669Z,84.90
2019-05-05T01:44:04.872Z,85.00
2019-05-05T01:46:32.507Z,85.10
2019-05-05T01:49:00.782Z,85.00
2019-05-05T01:51:28.708Z,85.00
2019-05-05T01:53:56.355Z,85.10
2019-05-05T01:56:24.764Z,85.10
2019-05-05T01:58:54.735Z,85.00
2019-05-05T02:01:25.518Z,85.00
2019-05-05T02:03:54.865Z,85.00
2019-05-05T02:06:24.668Z,85.10
2019-05-05T02:08:52.180Z,85.20
2019-05-05T02:11:20.442Z,85.20
2019-05-05T02:13:48.152Z,85.50
2019-05-05T02:16:15.555Z,85.60
2019-05-05T02:18:45.069Z,85.70
2019-05-05T02:21:14.748Z,85.70
2019-05-05T02:23:42.616Z,86.00
2019-05-05T02:26:10.623Z,86.10
2019-05-05T02:28:54.424Z,86.10
2019-05-05T02:31:28.955Z,86.20
2019-05-05T02:33:57.068Z,86.30
2019-05-05T02:36:25.814Z,86.40
2019-05-05T02:38:56.472Z,86.50
2019-05-05T02:41:25.419Z,86.50
2019-05-05T02:43:55.739Z,86.30
2019-05-05T02:46:38.105Z,86.40
2019-05-05T02:49:06.769Z,86.40
2019-05-05T02:51:35.570Z,86.40
2019-05-05T02:54:04.540Z,86.00
2019-05-05T02:56:45.966Z,86.40
2019-05-05T02:59:19.273Z,86.20
2019-05-05T03:01:53.848Z,86.30
2019-05-05T03:04:24.306Z,86.30
2019-05-05T03:06:54.236Z,86.20
2019-05-05T03:09:25.619Z,86.30
2019-05-05T03:11:55.879Z,86.20
2019-05-05T03:14:25.748Z,87.10
2019-05-05T03:16:54.212Z,86.40
2019-05-05T03:19:23.674Z,86.40
2019-05-05T03:21:54.743Z,86.30
2019-05-05T03:24:23.586Z,86.40
2019-05-05T03:26:53.655Z,86.30
2019-05-05T03:29:21.612Z,86.40
2019-05-05T03:31:50.259Z,86.40
2019-05-05T03:34:19.930Z,86.60
2019-05-05T03:36:48.744Z,86.50
2019-05-05T03:39:23.629Z,86.50
2019-05-05T03:42:14.957Z,86.50
2019-05-05T03:44:48.109Z,86.50
2019-05-05T03:47:16.525Z,86.70
2019-05-05T03:49:44.897Z,86.80
2019-05-05T03:52:13.908Z,87.00
2019-05-05T03:54:43.562Z,87.10
2019-05-05T03:57:24.606Z,87.40
2019-05-05T03:59:54.712Z,87.80
2019-05-05T04:02:33.922Z,88.00
2019-05-05T04:05:10.590Z,87.80
2019-05-05T04:07:38.873Z,88.10
2019-05-05T04:10:07.369Z,88.40
2019-05-05T04:12:35.649Z,88.70
2019-05-05T04:15:03.934Z,88.80
2019-05-05T04:17:44.120Z,88.90
2019-05-05T04:20:26.164Z,89.30
2019-05-05T04:22:54.624Z,89.40
2019-05-05T04:25:24.380Z,89.60
2019-05-05T04:27:53.830Z,89.80
2019-05-05T04:30:23.580Z,90.00
2019-05-05T04:32:51.665Z,90.00
2019-05-05T04:35:19.849Z,90.10
2019-05-05T04:37:47.714Z,90.20
2019-05-05T04:40:15.593Z,90.30
2019-05-05T04:42:44.205Z,90.30
2019-05-05T04:45:15.384Z,90.40
2019-05-05T04:47:47.011Z,90.50
2019-05-05T04:50:44.196Z,90.50
2019-05-05T04:53:17.870Z,90.60
2019-05-05T04:55:45.964Z,90.70
2019-05-05T04:58:14.032Z,90.70
2019-05-05T05:00:43.991Z,90.80
2019-05-05T05:03:29.122Z,90.90
2019-05-05T05:06:04.125Z,91.00
2019-05-05T05:08:33.793Z,91.10
2019-05-05T05:11:03.669Z,91.10
2019-05-05T05:13:31.650Z,91.10
2019-05-05T05:15:59.793Z,91.10
2019-05-05T05:18:30.406Z,91.10
2019-05-05T05:20:58.814Z,91.30
2019-05-05T05:23:29.660Z,91.40
2019-05-05T05:25:57.276Z,91.50
2019-05-05T05:28:25.832Z,91.40
2019-05-05T05:30:54.602Z,91.50
2019-05-05T05:33:23.835Z,91.60
2019-05-05T05:35:54.451Z,91.80
2019-05-05T05:38:24.255Z,91.80
2019-05-05T05:41:08.038Z,91.90
2019-05-05T05:44:04.326Z,92.00
2019-05-05T05:46:55.632Z,92.50
2019-05-05T05:49:34.651Z,92.20
2019-05-05T05:52:13.524Z,92.30
2019-05-05T05:54:34.130Z,92.40
2019-05-05T05:57:04.158Z,92.50
2019-05-05T05:59:33.959Z,92.60
2019-05-05T06:02:11.563Z,92.60
2019-05-05T06:04:33.915Z,92.80
2019-05-05T06:07:04.106Z,92.80
2019-05-05T06:09:34.272Z,92.90
2019-05-05T06:12:03.596Z,93.20
2019-05-05T06:14:33.849Z,93.30
2019-05-05T06:17:04.224Z,93.40
2019-05-05T06:19:33.794Z,93.50
2019-05-05T06:22:03.517Z,93.60
2019-05-05T06:24:34.420Z,93.80
2019-05-05T06:27:03.743Z,94.00
2019-05-05T06:29:31.916Z,94.20
2019-05-05T06:32:00.065Z,94.20
2019-05-05T06:34:28.885Z,94.30
2019-05-05T06:36:57.035Z,94.40
2019-05-05T06:39:25.783Z,94.60
2019-05-05T06:42:19.327Z,94.60
2019-05-05T06:44:53.418Z,94.80
2019-05-05T06:47:24.757Z,95.00
2019-05-05T06:49:54.171Z,95.20
2019-05-05T06:52:22.045Z,95.40
2019-05-05T06:54:50.462Z,95.40
2019-05-05T06:57:18.470Z,95.60
2019-05-05T06:59:46.195Z,95.50
2019-05-05T07:02:14.551Z,95.80
2019-05-05T07:04:44.317Z,95.90
2019-05-05T07:07:14.362Z,96.10
2019-05-05T07:09:41.672Z,95.90
2019-05-05T07:12:10.038Z,96.00
2019-05-05T07:14:38.425Z,96.20
2019-05-05T07:17:06.315Z,96.50
2019-05-05T07:19:34.624Z,96.50
2019-05-05T07:22:04.058Z,96.50
2019-05-05T07:24:34.226Z,96.50
2019-05-05T07:27:01.845Z,96.70
2019-05-05T07:29:29.918Z,97.10
2019-05-05T07:31:58.248Z,96.70
2019-05-05T07:34:28.314Z,96.60
2019-05-05T07:36:56.808Z,96.70
2019-05-05T07:39:24.908Z,96.20
2019-05-05T07:41:54.190Z,95.70
2019-05-05T07:44:29.009Z,95.90
2019-05-05T07:46:54.342Z,96.20
2019-05-05T07:49:24.355Z,95.80
2019-05-05T07:51:54.604Z,95.40
2019-05-05T07:54:23.636Z,95.40
2019-05-05T07:56:53.642Z,95.20
2019-05-05T07:59:23.537Z,94.80
2019-05-05T08:01:50.772Z,94.80
2019-05-05T08:04:18.896Z,94.80
2019-05-05T08:06:47.188Z,94.90
2019-05-05T08:09:15.346Z,94.80
2019-05-05T08:11:43.597Z,94.40
2019-05-05T08:14:11.791Z,94.40
2019-05-05T08:16:59.412Z,94.10
2019-05-05T08:19:54.260Z,94.00
2019-05-05T08:22:23.555Z,94.00
2019-05-05T08:24:59.085Z,93.00
2019-05-05T08:27:53.730Z,92.00
2019-05-05T08:30:34.008Z,92.30
2019-05-05T08:33:04.660Z,92.30
2019-05-05T08:35:34.398Z,91.60
2019-05-05T08:38:04.516Z,92.20
2019-05-05T08:40:34.399Z,92.80
2019-05-05T08:43:04.538Z,93.70
2019-05-05T08:45:35.270Z,93.40
2019-05-05T08:48:04.936Z,93.40
2019-05-05T08:50:34.823Z,93.80
2019-05-05T08:53:04.432Z,93.80
2019-05-05T08:55:33.932Z,92.50
2019-05-05T08:58:04.568Z,92.50
2019-05-05T09:00:33.788Z,92.10
2019-05-05T09:03:03.842Z,92.10
2019-05-05T09:05:34.407Z,92.20
2019-05-05T09:08:04.488Z,92.30
2019-05-05T09:10:34.233Z,92.20
2019-05-05T09:13:03.780Z,92.60
2019-05-05T09:15:33.712Z,92.60
2019-05-05T09:18:01.796Z,92.00
2019-05-05T09:20:29.776Z,91.30
2019-05-05T09:23:03.760Z,91.50
2019-05-05T09:25:53.877Z,91.20
2019-05-05T09:28:39.231Z,91.10
2019-05-05T09:31:08.452Z,90.90
2019-05-05T09:33:39.206Z,90.60
2019-05-05T09:36:07.134Z,90.70
2019-05-05T09:38:35.247Z,89.80
2019-05-05T09:41:05.619Z,88.20
2019-05-05T09:43:34.496Z,87.90
2019-05-05T09:46:08.960Z,89.00
2019-05-05T09:48:37.736Z,88.90
2019-05-05T09:51:05.731Z,88.80
2019-05-05T09:53:34.470Z,88.10
2019-05-05T09:56:04.070Z,87.30
2019-05-05T09:58:34.585Z,86.80
2019-05-05T10:01:03.963Z,86.90
2019-05-05T10:03:33.961Z,87.90
2019-05-05T10:06:05.029Z,87.70
2019-05-05T10:08:34.192Z,90.40
2019-05-05T10:11:03.953Z,91.60
2019-05-05T10:13:33.653Z,92.30
2019-05-05T10:16:03.982Z,92.10
2019-05-05T10:18:34.110Z,92.90
2019-05-05T10:21:01.960Z,93.00
2019-05-05T10:23:31.783Z,92.50
2019-05-05T10:26:04.347Z,92.40
2019-05-05T10:28:34.047Z,92.80
2019-05-05T10:31:04.613Z,92.40
2019-05-05T10:33:36.262Z,91.90
2019-05-05T10:36:03.182Z,91.20
2019-05-05T10:38:33.999Z,91.30
2019-05-05T10:41:15.177Z,91.60
2019-05-05T10:43:47.253Z,90.90
2019-05-05T10:46:15.038Z,91.00
2019-05-05T10:48:44.577Z,90.20
2019-05-05T10:51:13.940Z,90.30
2019-05-05T10:53:45.795Z,90.30
2019-05-05T10:56:14.093Z,89.70
2019-05-05T10:58:44.151Z,88.20
2019-05-05T11:01:14.369Z,88.20
2019-05-05T11:03:44.498Z,88.00
2019-05-05T11:06:13.706Z,88.30
2019-05-05T11:08:47.637Z,88.30
2019-05-05T11:11:15.995Z,85.60
2019-05-05T11:13:45.637Z,83.80
2019-05-05T11:16:14.524Z,81.60
2019-05-05T11:18:43.737Z,79.80
2019-05-05T11:21:14.313Z,79.50
2019-05-05T11:23:44.779Z,78.40
2019-05-05T11:26:14.323Z,79.50
2019-05-05T11:28:42.084Z,80.50
2019-05-05T11:31:10.149Z,80.90
2019-05-05T11:33:55.055Z,81.30
2019-05-05T11:36:29.519Z,79.40
2019-05-05T11:38:57.445Z,79.30
2019-05-05T11:41:25.552Z,79.10
2019-05-05T11:43:53.517Z,78.70
2019-05-05T11:46:24.713Z,77.60
2019-05-05T11:48:54.423Z,78.40
2019-05-05T11:51:24.802Z,75.80
2019-05-05T11:53:53.854Z,74.20
2019-05-05T11:56:21.764Z,78.10
2019-05-05T11:58:49.713Z,84.40
2019-05-05T12:01:17.650Z,86.40
2019-05-05T12:03:46.146Z,86.40
2019-05-05T12:06:14.824Z,86.50
2019-05-05T12:08:45.612Z,86.60
2019-05-05T12:11:15.048Z,88.20
2019-05-05T12:13:43.893Z,90.60
2019-05-05T12:16:13.743Z,90.80
2019-05-05T12:18:41.936Z,90.80
2019-05-05T12:21:10.390Z,90.90
2019-05-05T12:23:39.778Z,90.30
2019-05-05T12:26:26.839Z,88.80
2019-05-05T12:28:59.966Z,90.00
2019-05-05T12:31:28.744Z,86.70
2019-05-05T12:33:57.815Z,85.00
2019-05-05T12:36:25.503Z,85.70
2019-05-05T12:38:54.759Z,85.30
2019-05-05T12:41:23.904Z,80.90
2019-05-05T12:43:54.607Z,82.20
2019-05-05T12:46:38.467Z,80.20
2019-05-05T12:49:06.871Z,80.40
2019-05-05T12:51:35.201Z,78.80
2019-05-05T12:54:04.516Z,78.40
2019-05-05T12:56:34.113Z,79.50
2019-05-05T12:59:04.874Z,79.40
2019-05-05T13:01:35.583Z,80.20
2019-05-05T13:04:03.780Z,80.20
2019-05-05T13:06:31.403Z,79.70
2019-05-05T13:08:59.686Z,78.40
2019-05-05T13:11:28.893Z,79.70
2019-05-05T13:13:56.817Z,83.20
2019-05-05T13:16:25.052Z,84.60
2019-05-05T13:18:53.871Z,85.80
2019-05-05T13:21:47.927Z,85.80
2019-05-05T13:24:29.848Z,86.10
2019-05-05T13:27:09.880Z,87.00
2019-05-05T13:29:36.054Z,87.50
2019-05-05T13:32:04.173Z,88.20
2019-05-05T13:34:32.484Z,87.20
2019-05-05T13:37:00.217Z,88.00
2019-05-05T13:39:28.849Z,87.30
2019-05-05T13:41:57.557Z,87.10
2019-05-05T13:44:47.749Z,85.90
2019-05-05T13:47:15.821Z,86.20
2019-05-05T13:49:44.378Z,86.30
2019-05-05T13:52:13.887Z,85.50
2019-05-05T13:54:43.779Z,85.00
2019-05-05T13:57:14.388Z,84.20
2019-05-05T13:59:44.322Z,82.70
2019-05-05T14:02:13.882Z,82.10
2019-05-05T14:04:43.627Z,81.40
2019-05-05T14:07:12.476Z,81.80
2019-05-05T14:09:40.170Z,78.20
2019-05-05T14:12:08.647Z,78.50
2019-05-05T14:14:38.157Z,77.80
2019-05-05T14:17:06.110Z,77.50
2019-05-05T14:19:34.492Z,77.20
2019-05-05T14:22:04.439Z,77.10
2019-05-05T14:24:45.518Z,74.30
2019-05-05T14:27:14.521Z,74.60
2019-05-05T14:29:48.859Z,74.00
2019-05-05T14:32:17.811Z,73.50
2019-05-05T14:34:50.947Z,74.50
2019-05-05T14:37:45.284Z,75.10
2019-05-05T14:40:14.249Z,73.80
2019-05-05T14:42:43.496Z,73.60
2019-05-05T14:45:11.922Z,75.20
2019-05-05T14:47:40.125Z,74.00
2019-05-05T14:50:08.439Z,74.70
2019-05-05T14:52:36.260Z,76.10
2019-05-05T14:55:04.364Z,76.80
2019-05-05T14:57:33.652Z,77.40
2019-05-05T15:00:01.588Z,77.60
2019-05-05T15:02:29.315Z,77.90
2019-05-05T15:05:00.565Z,78.20
2019-05-05T15:07:44.437Z,78.20
2019-05-05T15:10:34.264Z,77.70
2019-05-05T15:13:07.909Z,78.20
2019-05-05T15:15:36.513Z,78.90
2019-05-05T15:18:04.411Z,79.00
2019-05-05T15:20:33.798Z,77.80
2019-05-05T15:23:04.597Z,77.40
2019-05-05T15:25:34.148Z,76.90
2019-05-05T15:28:02.162Z,76.80
2019-05-05T15:30:30.311Z,75.50
2019-05-05T15:32:59.229Z,74.60
2019-05-05T15:35:27.117Z,75.80
2019-05-05T15:37:55.339Z,75.40
2019-05-05T15:40:24.767Z,75.90
2019-05-05T15:42:54.437Z,76.10
2019-05-05T15:45:26.382Z,76.20
2019-05-05T15:47:55.319Z,76.80
2019-05-05T15:50:23.813Z,77.00
2019-05-05T15:52:51.530Z,77.00
2019-05-05T15:55:20.378Z,76.70
2019-05-05T15:57:47.775Z,77.00
2019-05-05T16:00:16.833Z,76.60
2019-05-05T16:02:45.111Z,76.50
2019-05-05T16:05:13.828Z,76.00
2019-05-05T16:07:43.803Z,76.00
2019-05-05T16:10:13.642Z,76.20
2019-05-05T16:12:41.645Z,76.50
2019-05-05T16:15:28.280Z,77.10
2019-05-05T16:18:13.903Z,77.00
2019-05-05T16:20:54.684Z,76.80
2019-05-05T16:23:26.058Z,76.50
2019-05-05T16:25:54.302Z,77.20
2019-05-05T16:28:25.144Z,77.30
2019-05-05T16:30:56.066Z,76.60
2019-05-05T16:33:24.231Z,76.10
2019-05-05T16:35:53.769Z,76.00
2019-05-05T16:38:24.023Z,76.40
2019-05-05T16:40:53.764Z,76.10
2019-05-05T16:43:24.539Z,75.80
2019-05-05T16:45:53.763Z,76.00
2019-05-05T16:48:25.288Z,76.10
2019-05-05T16:50:54.169Z,76.20
2019-05-05T16:53:34.883Z,76.50
2019-05-05T16:56:05.849Z,76.70
2019-05-05T16:58:33.672Z,77.10
2019-05-05T17:01:03.638Z,77.60
2019-05-05T17:03:31.299Z,77.70
2019-05-05T17:05:59.659Z,77.90
2019-05-05T17:08:27.800Z,78.20
2019-05-05T17:10:56.398Z,76.80
2019-05-05T17:13:41.503Z,76.10
2019-05-05T17:16:35.048Z,76.00
2019-05-05T17:19:13.952Z,75.90
2019-05-05T17:21:59.568Z,75.70
2019-05-05T17:24:27.238Z,75.00
2019-05-05T17:26:57.893Z,74.40
2019-05-05T17:29:26.045Z,74.00
2019-05-05T17:31:54.603Z,75.20
2019-05-05T17:34:24.492Z,75.70
2019-05-05T17:36:53.611Z,76.00
2019-05-05T17:39:23.769Z,75.90
2019-05-05T17:42:17.206Z,76.30
2019-05-05T17:45:23.619Z,75.80
2019-05-05T17:48:01.848Z,73.70
2019-05-05T17:50:47.925Z,74.00
2019-05-05T17:53:23.791Z,74.10
2019-05-05T17:55:53.690Z,74.40
2019-05-05T17:58:21.289Z,74.70
2019-05-05T18:00:54.336Z,75.10
2019-05-05T18:03:22.072Z,75.70
2019-05-05T18:06:08.160Z,75.60
2019-05-05T18:08:59.313Z,75.90
2019-05-05T18:11:35.216Z,76.10
2019-05-05T18:14:08.000Z,76.50
2019-05-05T18:16:37.189Z,76.40
2019-05-05T18:19:06.467Z,76.40
2019-05-05T18:21:34.765Z,76.40
2019-05-05T18:24:03.614Z,76.40
2019-05-05T18:26:33.930Z,76.50
2019-05-05T18:29:03.609Z,76.40
2019-05-05T18:31:33.660Z,76.40
2019-05-05T18:34:03.795Z,76.50
2019-05-05T18:36:35.260Z,76.60
2019-05-05T18:39:04.680Z,76.60
2019-05-05T18:41:47.441Z,76.50
2019-05-05T18:44:24.107Z,76.60
2019-05-05T18:47:29.513Z,76.90
2019-05-05T18:49:57.577Z,76.90
2019-05-05T18:52:25.547Z,77.10
2019-05-05T18:54:54.476Z,77.80
2019-05-05T18:57:24.646Z,77.30
2019-05-05T18:59:54.278Z,77.90
2019-05-05T19:02:44.310Z,78.00
2019-05-05T19:05:19.498Z,78.40
2019-05-05T19:07:55.413Z,78.50
2019-05-05T19:10:19.693Z,78.50
2019-05-05T19:12:50.584Z,77.80
2019-05-05T19:15:17.579Z,77.60
2019-05-05T19:17:45.853Z,77.30
2019-05-05T19:20:21.007Z,76.90
2019-05-05T19:22:50.461Z,76.70
2019-05-05T19:25:18.451Z,76.60
2019-05-05T19:27:46.358Z,76.60
2019-05-05T19:30:15.228Z,76.80
2019-05-05T19:32:43.721Z,76.80
2019-05-05T19:35:12.869Z,77.00
2019-05-05T19:37:41.258Z,77.10
2019-05-05T19:40:09.328Z,77.00
2019-05-05T19:42:39.036Z,76.80
2019-05-05T19:45:07.740Z,76.40
2019-05-05T19:47:35.604Z,76.30
2019-05-05T19:50:10.396Z,76.10
2019-05-05T19:52:38.068Z,76.30
2019-05-05T19:55:05.857Z,76.30
2019-05-05T19:57:36.074Z,76.40
2019-05-05T20:00:05.265Z,76.40
2019-05-05T20:02:34.132Z,76.30
2019-05-05T20:05:04.051Z,76.50
2019-05-05T20:07:31.943Z,76.70
2019-05-05T20:09:59.764Z,76.80
2019-05-05T20:12:27.679Z,76.60
2019-05-05T20:14:55.983Z,76.80
2019-05-05T20:17:29.678Z,76.80
2019-05-05T20:19:57.127Z,77.00
2019-05-05T20:22:26.794Z,77.50
2019-05-05T20:24:54.272Z,77.40
2019-05-05T20:27:23.549Z,77.50
2019-05-05T20:29:52.340Z,77.60
2019-05-05T20:32:27.007Z,77.80
2019-05-05T20:35:10.627Z,77.90
2019-05-05T20:37:54.248Z,77.90
2019-05-05T20:40:24.760Z,78.00
2019-05-05T20:42:54.116Z,78.10
2019-05-05T20:45:27.507Z,78.10
2019-05-05T20:47:55.875Z,78.40
2019-05-05T20:50:24.700Z,78.40
2019-05-05T20:52:53.564Z,78.30
2019-05-05T20:55:21.425Z,78.30
2019-05-05T20:57:49.078Z,78.50
2019-05-05T21:00:17.547Z,78.40
2019-05-05T21:02:45.110Z,79.00
2019-05-05T21:05:14.453Z,78.40
2019-05-05T21:07:44.219Z,78.20
2019-05-05T21:10:14.195Z,78.30
2019-05-05T21:12:42.629Z,78.30
2019-05-05T21:15:13.037Z,78.50
2019-05-05T21:17:40.306Z,78.50
2019-05-05T21:20:07.953Z,78.60
2019-05-05T21:22:44.276Z,78.70
2019-05-05T21:25:30.428Z,78.80
2019-05-05T21:27:58.705Z,79.00
2019-05-05T21:30:26.154Z,79.10
2019-05-05T21:32:54.619Z,79.10
2019-05-05T21:35:25.867Z,79.20
2019-05-05T21:37:54.492Z,79.00
2019-05-05T21:40:24.878Z,79.00
2019-05-05T21:42:54.171Z,79.00
2019-05-05T21:45:22.180Z,79.40
2019-05-05T21:47:50.053Z,79.40
2019-05-05T21:50:33.757Z,79.40
2019-05-05T21:53:09.580Z,79.50
2019-05-05T21:55:44.966Z,79.80
2019-05-05T21:58:25.395Z,79.90
2019-05-05T22:01:11.936Z,79.70
2019-05-05T22:03:39.952Z,79.80
2019-05-05T22:06:07.489Z,79.80
2019-05-05T22:08:35.737Z,79.90
2019-05-05T22:11:07.061Z,80.10
2019-05-05T22:13:36.614Z,80.20
2019-05-05T22:16:04.508Z,80.20
2019-05-05T22:18:32.025Z,80.40
2019-05-05T22:21:20.430Z,80.40
2019-05-05T22:24:07.949Z,80.40
2019-05-05T22:26:35.842Z,80.80
2019-05-05T22:29:04.852Z,80.40
2019-05-05T22:31:34.586Z,80.50
2019-05-05T22:34:06.796Z,80.40
2019-05-05T22:36:34.601Z,80.50
2019-05-05T22:39:02.195Z,80.50
2019-05-05T22:41:29.758Z,80.70
2019-05-05T22:43:57.836Z,80.70
2019-05-05T22:46:25.796Z,81.60
2019-05-05T22:48:54.544Z,80.80
2019-05-05T22:51:22.304Z,80.70
2019-05-05T22:53:50.525Z,80.60
2019-05-05T22:56:18.233Z,80.70
2019-05-05T22:58:45.810Z,80.80
2019-05-05T23:01:13.703Z,80.80
2019-05-05T23:03:59.186Z,80.80
2019-05-05T23:06:27.327Z,80.90
2019-05-05T23:08:54.829Z,81.00
2019-05-05T23:11:23.925Z,80.80
2019-05-05T23:13:54.472Z,80.80
2019-05-05T23:16:34.565Z,80.70
2019-05-05T23:19:08.102Z,80.70
2019-05-05T23:22:11.787Z,80.60
2019-05-05T23:24:54.221Z,80.70
2019-05-05T23:27:40.268Z,80.90
2019-05-05T23:30:08.328Z,80.80
2019-05-05T23:32:36.048Z,80.80
2019-05-05T23:35:03.781Z,81.00
2019-05-05T23:37:31.663Z,81.00
2019-05-05T23:39:59.257Z,81.10
2019-05-05T23:42:27.155Z,81.20
2019-05-05T23:44:54.632Z,81.30
2019-05-05T23:47:24.630Z,81.30
2019-05-05T23:49:53.784Z,81.20
2019-05-05T23:52:24.020Z,81.30
2019-05-05T23:54:52.369Z,81.30
2019-05-05T23:57:19.833Z,81.40
2019-05-05T23:59:47.467Z,81.50
